Hlavní strana
METAR-TAF:

METAR-TAF

Letiště :

Letecká základna Minot

Minot, Severní Dakota, Spojené státy americké

zeměpisná šířka: 48-25N, zeměpisná délka: 101-21W, výška: 508 m

Aktuální stav počasí

Zpráva byla vytvořena před 12 minutami, v 06:56 UTC
Severoseverozápadní vítr 5 kt
Teplota 7°C
Vlhkost vzduchu 76%
Tlak 1022 hPa
Viditelnost: 16.1 km
Jasno

METAR: KMIB 200656Z AUTO 34005KT 10SM CLR 07/03 A3019 RMK AO2 SLP231 T00700029 $

Čas: 02:08 (07:08 UTC)

Předpověď počasí

Zpráva byla vytvořena před 6 hodinami a 8 minutami, v 01:00 UTC
Předpověď platná od 20 v 01 UTC do 21 v 07 UTC
Severní vítr 9 kt
Viditelnost 10 km a více
Skoro jasno ve výšce 5000 ft

TAF: KMIB 200100Z 2001/2107 01009KT 9999 FEW050 QNH3010INS TX25/2021Z TN12/2009Z

Stav a předpovědi počasí z více než 4 000 letišť (zprávy METAR a TAF).

Červené a žluté tečky na mapě představují dostupné meteorologické stanice.

Když kurzor umístíte na tečku, zobrazí se název stanice.

Pak kliknutím zobrazíte stav a předpověď počasí.

Chcete-li změnit mapu, kliknutím na zelené tlačítko se znaménkem +mapu přiblížíte, kliknutím na zelené tlačítko se znaménkem – mapu oddálíte a kliknutím na zelené šipky přejdete na sousední mapy.


METAR-TAF: